sensor_id;sensor_type;location;lat;lon;timestamp;pressure;altitude;pressure_sealevel;temperature;humidity
3250;BME280;1637;42.020;23.992;2023-10-13T00:02:01;93406.47;;;7.75;99.27
3250;BME280;1637;42.020;23.992;2023-10-13T00:04:31;93409.41;;;7.63;100.00
3250;BME280;1637;42.020;23.992;2023-10-13T00:06:58;93404.53;;;7.72;100.00
3250;BME280;1637;42.020;23.992;2023-10-13T00:09:28;93407.28;;;7.79;100.00
3250;BME280;1637;42.020;23.992;2023-10-13T00:11:58;93396.84;;;8.07;97.88
3250;BME280;1637;42.020;23.992;2023-10-13T00:14:24;93399.28;;;7.79;100.00
3250;BME280;1637;42.020;23.992;2023-10-13T00:16:59;93404.91;;;7.70;100.00
3250;BME280;1637;42.020;23.992;2023-10-13T00:19:31;93384.25;;;7.60;100.00
3250;BME280;1637;42.020;23.992;2023-10-13T00:22:10;93398.03;;;8.10;99.30
3250;BME280;1637;42.020;23.992;2023-10-13T00:24:38;93397.81;;;8.33;97.41
3250;BME280;1637;42.020;23.992;2023-10-13T00:27:11;93381.28;;;8.16;97.11
3250;BME280;1637;42.020;23.992;2023-10-13T00:29:53;93391.75;;;7.91;99.58
3250;BME280;1637;42.020;23.992;2023-10-13T00:32:42;93377.94;;;7.38;100.00
3250;BME280;1637;42.020;23.992;2023-10-13T00:35:10;93388.91;;;7.70;100.00
3250;BME280;1637;42.020;23.992;2023-10-13T00:37:39;93395.84;;;7.78;100.00
3250;BME280;1637;42.020;23.992;2023-10-13T00:40:10;93390.00;;;7.62;100.00
3250;BME280;1637;42.020;23.992;2023-10-13T00:42:52;93393.25;;;7.45;100.00
3250;BME280;1637;42.020;23.992;2023-10-13T00:45:19;93385.13;;;7.34;100.00
3250;BME280;1637;42.020;23.992;2023-10-13T00:47:47;93384.91;;;7.46;100.00
3250;BME280;1637;42.020;23.992;2023-10-13T00:50:22;93381.75;;;7.37;100.00
3250;BME280;1637;42.020;23.992;2023-10-13T00:52:49;93381.81;;;7.44;100.00
3250;BME280;1637;42.020;23.992;2023-10-13T00:55:18;93383.75;;;7.10;100.00
3250;BME280;1637;42.020;23.992;2023-10-13T00:57:51;93361.91;;;6.98;100.00
3250;BME280;1637;42.020;23.992;2023-10-13T01:00:19;93385.66;;;7.47;99.58
3250;BME280;1637;42.020;23.992;2023-10-13T01:02:47;93382.22;;;7.46;98.87
3250;BME280;1637;42.020;23.992;2023-10-13T01:05:21;93387.22;;;7.51;98.25
3250;BME280;1637;42.020;23.992;2023-10-13T01:07:49;93391.88;;;7.62;96.41
3250;BME280;1637;42.020;23.992;2023-10-13T01:10:18;93378.72;;;7.39;95.71
3250;BME280;1637;42.020;23.992;2023-10-13T01:12:45;93385.47;;;7.29;97.52
3250;BME280;1637;42.020;23.992;2023-10-13T01:15:13;93383.97;;;7.32;97.39
3250;BME280;1637;42.020;23.992;2023-10-13T01:17:48;93387.06;;;7.37;96.78
3250;BME280;1637;42.020;23.992;2023-10-13T01:20:16;93380.16;;;7.33;96.51
3250;BME280;1637;42.020;23.992;2023-10-13T01:22:50;93379.16;;;7.44;96.72
3250;BME280;1637;42.020;23.992;2023-10-13T01:25:23;93374.78;;;7.26;96.80
3250;BME280;1637;42.020;23.992;2023-10-13T01:27:52;93377.09;;;7.31;97.70
3250;BME280;1637;42.020;23.992;2023-10-13T01:30:19;93372.50;;;7.28;97.43
3250;BME280;1637;42.020;23.992;2023-10-13T01:32:48;93383.56;;;7.30;97.55
3250;BME280;1637;42.020;23.992;2023-10-13T01:35:16;93381.78;;;7.07;99.29
3250;BME280;1637;42.020;23.992;2023-10-13T01:37:44;93379.78;;;7.31;98.68
3250;BME280;1637;42.020;23.992;2023-10-13T01:40:11;93379.00;;;7.27;97.65
3250;BME280;1637;42.020;23.992;2023-10-13T01:42:39;93407.59;;;7.00;99.01
3250;BME280;1637;42.020;23.992;2023-10-13T01:45:06;93384.84;;;7.06;100.00
3250;BME280;1637;42.020;23.992;2023-10-13T01:47:32;93382.81;;;6.96;99.72
3250;BME280;1637;42.020;23.992;2023-10-13T01:49:59;93381.69;;;6.63;100.00
3250;BME280;1637;42.020;23.992;2023-10-13T01:52:32;93377.97;;;6.71;100.00
3250;BME280;1637;42.020;23.992;2023-10-13T01:54:59;93387.22;;;6.81;100.00
3250;BME280;1637;42.020;23.992;2023-10-13T01:57:26;93390.03;;;6.95;99.46
3250;BME280;1637;42.020;23.992;2023-10-13T01:59:55;93379.75;;;6.94;99.73
3250;BME280;1637;42.020;23.992;2023-10-13T02:02:20;93373.81;;;6.74;100.00
3250;BME280;1637;42.020;23.992;2023-10-13T02:04:54;93379.81;;;6.67;100.00
3250;BME280;1637;42.020;23.992;2023-10-13T02:07:22;93386.50;;;6.87;100.00
3250;BME280;1637;42.020;23.992;2023-10-13T02:09:55;93381.56;;;6.86;100.00
3250;BME280;1637;42.020;23.992;2023-10-13T02:12:21;93377.66;;;6.76;100.00
3250;BME280;1637;42.020;23.992;2023-10-13T02:14:51;93379.03;;;6.37;100.00
3250;BME280;1637;42.020;23.992;2023-10-13T02:17:18;93379.56;;;6.19;100.00
3250;BME280;1637;42.020;23.992;2023-10-13T02:19:47;93382.47;;;6.67;100.00
3250;BME280;1637;42.020;23.992;2023-10-13T02:22:13;93389.88;;;6.81;100.00
3250;BME280;1637;42.020;23.992;2023-10-13T02:24:53;93382.16;;;7.02;98.54
3250;BME280;1637;42.020;23.992;2023-10-13T02:27:18;93382.31;;;6.83;98.72
3250;BME280;1637;42.020;23.992;2023-10-13T02:29:49;93385.41;;;6.59;100.00
3250;BME280;1637;42.020;23.992;2023-10-13T02:32:15;93397.34;;;7.02;98.69
3250;BME280;1637;42.020;23.992;2023-10-13T02:34:45;93385.00;;;6.57;98.93
3250;BME280;1637;42.020;23.992;2023-10-13T02:37:11;93386.72;;;6.42;100.00
3250;BME280;1637;42.020;23.992;2023-10-13T02:39:39;93386.72;;;6.72;100.00
3250;BME280;1637;42.020;23.992;2023-10-13T02:42:06;93378.94;;;6.30;100.00
3250;BME280;1637;42.020;23.992;2023-10-13T02:44:33;93381.22;;;6.58;100.00
3250;BME280;1637;42.020;23.992;2023-10-13T02:47:02;93379.66;;;6.86;99.67
3250;BME280;1637;42.020;23.992;2023-10-13T02:49:31;93330.19;;;6.52;99.69
3250;BME280;1637;42.020;23.992;2023-10-13T02:52:01;93381.63;;;6.60;100.00
3250;BME280;1637;42.020;23.992;2023-10-13T02:54:32;93382.09;;;6.39;100.00
3250;BME280;1637;42.020;23.992;2023-10-13T02:57:05;93370.47;;;6.24;100.00
3250;BME280;1637;42.020;23.992;2023-10-13T02:59:32;93375.38;;;6.18;100.00
3250;BME280;1637;42.020;23.992;2023-10-13T03:02:06;93374.50;;;5.88;100.00
3250;BME280;1637;42.020;23.992;2023-10-13T03:04:43;93373.50;;;5.73;100.00
3250;BME280;1637;42.020;23.992;2023-10-13T03:07:11;93380.75;;;6.26;100.00
3250;BME280;1637;42.020;23.992;2023-10-13T03:09:41;93367.81;;;6.24;100.00
3250;BME280;1637;42.020;23.992;2023-10-13T03:12:15;93380.97;;;6.13;100.00
3250;BME280;1637;42.020;23.992;2023-10-13T03:14:42;93374.25;;;6.19;100.00
3250;BME280;1637;42.020;23.992;2023-10-13T03:17:13;93371.53;;;6.46;98.74
3250;BME280;1637;42.020;23.992;2023-10-13T03:19:42;93375.84;;;6.28;99.23
3250;BME280;1637;42.020;23.992;2023-10-13T03:22:16;93376.47;;;5.91;100.00
3250;BME280;1637;42.020;23.992;2023-10-13T03:24:43;93379.88;;;5.92;100.00
3250;BME280;1637;42.020;23.992;2023-10-13T03:27:12;93369.06;;;5.81;100.00
3250;BME280;1637;42.020;23.992;2023-10-13T03:29:42;93338.69;;;5.82;100.00
3250;BME280;1637;42.020;23.992;2023-10-13T03:32:10;93368.28;;;6.03;100.00
3250;BME280;1637;42.020;23.992;2023-10-13T03:34:39;93368.25;;;5.77;100.00
3250;BME280;1637;42.020;23.992;2023-10-13T03:37:17;93361.47;;;5.79;100.00
3250;BME280;1637;42.020;23.992;2023-10-13T03:39:44;93320.53;;;5.61;100.00
3250;BME280;1637;42.020;23.992;2023-10-13T03:42:11;93362.88;;;5.73;100.00
3250;BME280;1637;42.020;23.992;2023-10-13T03:44:44;93362.88;;;5.73;100.00
3250;BME280;1637;42.020;23.992;2023-10-13T03:47:12;93373.31;;;5.85;100.00
3250;BME280;1637;42.020;23.992;2023-10-13T03:49:52;93374.06;;;5.86;100.00
3250;BME280;1637;42.020;23.992;2023-10-13T03:52:40;93375.09;;;5.78;100.00
3250;BME280;1637;42.020;23.992;2023-10-13T03:55:08;93373.22;;;5.78;100.00
3250;BME280;1637;42.020;23.992;2023-10-13T03:57:42;93358.91;;;5.64;100.00
3250;BME280;1637;42.020;23.992;2023-10-13T04:00:12;93371.41;;;5.60;100.00
3250;BME280;1637;42.020;23.992;2023-10-13T04:02:47;93376.28;;;5.58;100.00
3250;BME280;1637;42.020;23.992;2023-10-13T04:05:19;93378.47;;;5.52;100.00
3250;BME280;1637;42.020;23.992;2023-10-13T04:08:05;93375.16;;;5.36;100.00
3250;BME280;1637;42.020;23.992;2023-10-13T04:10:58;93375.56;;;5.38;100.00
3250;BME280;1637;42.020;23.992;2023-10-13T04:13:42;93393.44;;;5.64;100.00
3250;BME280;1637;42.020;23.992;2023-10-13T04:16:38;93385.84;;;5.39;100.00
3250;BME280;1637;42.020;23.992;2023-10-13T04:19:16;93388.13;;;5.64;100.00
3250;BME280;1637;42.020;23.992;2023-10-13T04:21:49;93392.88;;;5.51;100.00
3250;BME280;1637;42.020;23.992;2023-10-13T04:24:25;93389.44;;;5.50;100.00
3250;BME280;1637;42.020;23.992;2023-10-13T04:27:18;93397.88;;;5.33;100.00
3250;BME280;1637;42.020;23.992;2023-10-13T04:30:04;93398.16;;;5.28;100.00
3250;BME280;1637;42.020;23.992;2023-10-13T04:32:45;93391.16;;;5.20;100.00
3250;BME280;1637;42.020;23.992;2023-10-13T04:35:13;93402.53;;;5.17;100.00
3250;BME280;1637;42.020;23.992;2023-10-13T04:37:44;93405.13;;;4.94;100.00
3250;BME280;1637;42.020;23.992;2023-10-13T04:40:21;93410.09;;;4.96;100.00
3250;BME280;1637;42.020;23.992;2023-10-13T04:42:50;93404.63;;;4.89;100.00
3250;BME280;1637;42.020;23.992;2023-10-13T04:45:19;93403.44;;;5.47;100.00
3250;BME280;1637;42.020;23.992;2023-10-13T04:48:05;93401.88;;;5.24;100.00
3250;BME280;1637;42.020;23.992;2023-10-13T04:50:59;93401.03;;;5.39;100.00
3250;BME280;1637;42.020;23.992;2023-10-13T04:53:46;93406.16;;;6.19;100.00
3250;BME280;1637;42.020;23.992;2023-10-13T04:56:31;93409.69;;;6.83;95.34
3250;BME280;1637;42.020;23.992;2023-10-13T04:59:23;93413.91;;;6.88;92.87
3250;BME280;1637;42.020;23.992;2023-10-13T05:02:23;93411.06;;;6.44;93.60
3250;BME280;1637;42.020;23.992;2023-10-13T05:05:09;93408.50;;;6.25;97.74
3250;BME280;1637;42.020;23.992;2023-10-13T05:08:08;93412.75;;;7.19;92.94
3250;BME280;1637;42.020;23.992;2023-10-13T05:10:52;93409.81;;;8.09;88.88
3250;BME280;1637;42.020;23.992;2023-10-13T05:13:38;93414.34;;;9.32;81.65
3250;BME280;1637;42.020;23.992;2023-10-13T05:16:22;93405.34;;;10.22;75.54
3250;BME280;1637;42.020;23.992;2023-10-13T05:19:06;93416.03;;;10.57;73.16
3250;BME280;1637;42.020;23.992;2023-10-13T05:21:50;93417.19;;;10.46;73.53
3250;BME280;1637;42.020;23.992;2023-10-13T05:24:35;93410.97;;;10.98;72.78
3250;BME280;1637;42.020;23.992;2023-10-13T05:27:28;93410.59;;;10.96;71.64
3250;BME280;1637;42.020;23.992;2023-10-13T05:30:14;93421.16;;;11.39;70.71
3250;BME280;1637;42.020;23.992;2023-10-13T05:32:57;93416.59;;;11.25;72.23
3250;BME280;1637;42.020;23.992;2023-10-13T05:35:42;93415.34;;;12.21;69.61
3250;BME280;1637;42.020;23.992;2023-10-13T05:38:26;93418.72;;;13.48;66.51
3250;BME280;1637;42.020;23.992;2023-10-13T05:41:11;93427.94;;;13.77;65.72
3250;BME280;1637;42.020;23.992;2023-10-13T05:43:55;93430.22;;;14.09;63.81
3250;BME280;1637;42.020;23.992;2023-10-13T05:46:41;93435.16;;;13.84;64.73
3250;BME280;1637;42.020;23.992;2023-10-13T05:49:48;93430.22;;;14.09;64.16
3250;BME280;1637;42.020;23.992;2023-10-13T05:52:30;93440.78;;;14.24;63.33
3250;BME280;1637;42.020;23.992;2023-10-13T05:55:14;93441.09;;;13.72;64.95
3250;BME280;1637;42.020;23.992;2023-10-13T05:57:59;93448.50;;;14.22;65.00
3250;BME280;1637;42.020;23.992;2023-10-13T06:00:43;93446.47;;;15.42;60.96
3250;BME280;1637;42.020;23.992;2023-10-13T06:03:29;93445.47;;;15.36;61.56
3250;BME280;1637;42.020;23.992;2023-10-13T06:06:13;93458.50;;;16.33;59.05
3250;BME280;1637;42.020;23.992;2023-10-13T06:08:57;93459.38;;;16.63;57.66
3250;BME280;1637;42.020;23.992;2023-10-13T06:11:41;93464.13;;;17.81;54.85
3250;BME280;1637;42.020;23.992;2023-10-13T06:14:25;93466.81;;;18.61;52.97
3250;BME280;1637;42.020;23.992;2023-10-13T06:17:10;93461.63;;;19.14;51.55
3250;BME280;1637;42.020;23.992;2023-10-13T06:19:55;93458.66;;;19.21;51.09
3250;BME280;1637;42.020;23.992;2023-10-13T06:22:39;93461.66;;;19.01;51.48
3250;BME280;1637;42.020;23.992;2023-10-13T06:25:23;93460.06;;;19.26;51.62
3250;BME280;1637;42.020;23.992;2023-10-13T06:28:07;93467.22;;;18.72;52.65
3250;BME280;1637;42.020;23.992;2023-10-13T06:30:56;93465.28;;;18.47;53.31
3250;BME280;1637;42.020;23.992;2023-10-13T06:33:23;93468.19;;;18.15;54.67
3250;BME280;1637;42.020;23.992;2023-10-13T06:35:56;93458.00;;;17.20;56.03
3250;BME280;1637;42.020;23.992;2023-10-13T06:38:24;93457.84;;;17.97;55.33
3250;BME280;1637;42.020;23.992;2023-10-13T06:40:56;93436.38;;;17.90;54.34
3250;BME280;1637;42.020;23.992;2023-10-13T06:43:23;93466.16;;;18.44;53.76
3250;BME280;1637;42.020;23.992;2023-10-13T06:45:50;93457.22;;;18.06;54.70
3250;BME280;1637;42.020;23.992;2023-10-13T06:48:23;93456.78;;;18.20;53.99
3250;BME280;1637;42.020;23.992;2023-10-13T06:50:50;93462.91;;;19.22;52.22
3250;BME280;1637;42.020;23.992;2023-10-13T06:53:20;93460.41;;;19.84;50.45
3250;BME280;1637;42.020;23.992;2023-10-13T06:55:47;93461.59;;;19.61;50.84
3250;BME280;1637;42.020;23.992;2023-10-13T06:58:18;93442.09;;;20.06;50.11
3250;BME280;1637;42.020;23.992;2023-10-13T07:00:49;93447.75;;;20.21;49.62
3250;BME280;1637;42.020;23.992;2023-10-13T07:03:22;93448.84;;;21.13;47.68
3250;BME280;1637;42.020;23.992;2023-10-13T07:05:50;93441.78;;;21.34;48.18
3250;BME280;1637;42.020;23.992;2023-10-13T07:08:17;93446.31;;;21.91;46.16
3250;BME280;1637;42.020;23.992;2023-10-13T07:10:50;93447.84;;;21.47;47.24
3250;BME280;1637;42.020;23.992;2023-10-13T07:13:27;93456.41;;;20.59;49.08
3250;BME280;1637;42.020;23.992;2023-10-13T07:15:54;93459.91;;;21.09;47.83
3250;BME280;1637;42.020;23.992;2023-10-13T07:18:26;93458.44;;;21.63;48.31
3250;BME280;1637;42.020;23.992;2023-10-13T07:21:01;93463.75;;;21.30;47.04
3250;BME280;1637;42.020;23.992;2023-10-13T07:23:36;93461.88;;;22.79;44.76
3250;BME280;1637;42.020;23.992;2023-10-13T07:26:05;93456.44;;;22.09;47.03
3250;BME280;1637;42.020;23.992;2023-10-13T07:28:34;93447.88;;;20.79;48.26
3250;BME280;1637;42.020;23.992;2023-10-13T07:31:02;93450.50;;;21.10;49.26
3250;BME280;1637;42.020;23.992;2023-10-13T07:33:41;93444.72;;;20.99;50.30
3250;BME280;1637;42.020;23.992;2023-10-13T07:36:09;93435.31;;;20.82;48.55
3250;BME280;1637;42.020;23.992;2023-10-13T07:38:53;93429.41;;;22.72;45.60
3250;BME280;1637;42.020;23.992;2023-10-13T07:41:40;93437.69;;;23.10;46.04
3250;BME280;1637;42.020;23.992;2023-10-13T07:44:08;93433.06;;;24.03;43.48
3250;BME280;1637;42.020;23.992;2023-10-13T07:46:38;93439.47;;;23.99;42.98
3250;BME280;1637;42.020;23.992;2023-10-13T07:49:05;93441.34;;;23.93;42.48
3250;BME280;1637;42.020;23.992;2023-10-13T07:51:40;93439.94;;;24.13;41.34
3250;BME280;1637;42.020;23.992;2023-10-13T07:54:10;93448.34;;;23.56;43.12
3250;BME280;1637;42.020;23.992;2023-10-13T07:56:39;93442.28;;;24.20;42.35
3250;BME280;1637;42.020;23.992;2023-10-13T07:59:07;93439.31;;;25.17;39.13
3250;BME280;1637;42.020;23.992;2023-10-13T08:01:34;93443.09;;;24.85;40.65
3250;BME280;1637;42.020;23.992;2023-10-13T08:04:01;93434.03;;;24.29;43.16
3250;BME280;1637;42.020;23.992;2023-10-13T08:06:36;93433.53;;;25.50;39.58
3250;BME280;1637;42.020;23.992;2023-10-13T08:09:05;93390.75;;;24.18;41.13
3250;BME280;1637;42.020;23.992;2023-10-13T08:11:55;93435.22;;;25.48;38.69
3250;BME280;1637;42.020;23.992;2023-10-13T08:14:23;93427.22;;;24.89;40.07
3250;BME280;1637;42.020;23.992;2023-10-13T08:16:54;93432.84;;;25.76;38.60
3250;BME280;1637;42.020;23.992;2023-10-13T08:19:26;93399.13;;;26.27;37.07
3250;BME280;1637;42.020;23.992;2023-10-13T08:21:54;93417.81;;;25.30;38.96
3250;BME280;1637;42.020;23.992;2023-10-13T08:24:24;93420.88;;;24.97;40.61
3250;BME280;1637;42.020;23.992;2023-10-13T08:26:53;93413.94;;;25.83;38.53
3250;BME280;1637;42.020;23.992;2023-10-13T08:29:24;93421.38;;;25.77;38.68
3250;BME280;1637;42.020;23.992;2023-10-13T08:32:08;93416.03;;;25.68;38.98
3250;BME280;1637;42.020;23.992;2023-10-13T08:34:48;93406.81;;;26.80;35.91
3250;BME280;1637;42.020;23.992;2023-10-13T08:37:35;93398.94;;;27.04;35.21
3250;BME280;1637;42.020;23.992;2023-10-13T08:40:13;93396.00;;;26.71;36.11
3250;BME280;1637;42.020;23.992;2023-10-13T08:42:58;93393.22;;;25.82;38.93
3250;BME280;1637;42.020;23.992;2023-10-13T08:45:40;93380.53;;;26.37;36.40
3250;BME280;1637;42.020;23.992;2023-10-13T08:48:26;93398.69;;;27.56;34.67
3250;BME280;1637;42.020;23.992;2023-10-13T08:50:58;93382.81;;;26.81;37.11
3250;BME280;1637;42.020;23.992;2023-10-13T08:53:40;93384.59;;;26.89;36.58
3250;BME280;1637;42.020;23.992;2023-10-13T08:56:17;93379.00;;;26.35;37.50
3250;BME280;1637;42.020;23.992;2023-10-13T08:58:58;93375.84;;;26.48;37.84
3250;BME280;1637;42.020;23.992;2023-10-13T09:01:36;93381.31;;;27.28;35.08
3250;BME280;1637;42.020;23.992;2023-10-13T09:04:12;93381.06;;;27.20;35.72
3250;BME280;1637;42.020;23.992;2023-10-13T09:06:49;93346.06;;;26.41;36.88
3250;BME280;1637;42.020;23.992;2023-10-13T09:09:43;93375.28;;;27.18;34.18
3250;BME280;1637;42.020;23.992;2023-10-13T09:12:26;93364.34;;;27.35;35.21
3250;BME280;1637;42.020;23.992;2023-10-13T09:15:06;93369.72;;;27.72;33.94
3250;BME280;1637;42.020;23.992;2023-10-13T09:17:45;93347.13;;;27.40;33.56
3250;BME280;1637;42.020;23.992;2023-10-13T09:20:18;93338.06;;;27.28;34.43
3250;BME280;1637;42.020;23.992;2023-10-13T09:22:58;93357.81;;;28.36;32.68
3250;BME280;1637;42.020;23.992;2023-10-13T09:25:34;93368.09;;;28.47;32.93
3250;BME280;1637;42.020;23.992;2023-10-13T09:28:01;93365.28;;;28.14;31.75
3250;BME280;1637;42.020;23.992;2023-10-13T09:30:28;93364.09;;;28.26;32.06
3250;BME280;1637;42.020;23.992;2023-10-13T09:33:00;93360.00;;;27.77;32.28
3250;BME280;1637;42.020;23.992;2023-10-13T09:35:30;93356.00;;;27.94;31.71
3250;BME280;1637;42.020;23.992;2023-10-13T09:38:00;93356.25;;;27.09;33.42
3250;BME280;1637;42.020;23.992;2023-10-13T09:40:28;93352.19;;;26.62;33.74
3250;BME280;1637;42.020;23.992;2023-10-13T09:43:00;93352.31;;;26.79;33.32
3250;BME280;1637;42.020;23.992;2023-10-13T09:45:34;93338.06;;;26.75;33.35
3250;BME280;1637;42.020;23.992;2023-10-13T09:48:10;93351.84;;;27.34;32.48
3250;BME280;1637;42.020;23.992;2023-10-13T09:50:43;93348.22;;;27.76;31.66
3250;BME280;1637;42.020;23.992;2023-10-13T09:53:10;93355.53;;;28.01;31.46
3250;BME280;1637;42.020;23.992;2023-10-13T09:55:42;93344.34;;;26.81;32.60
3250;BME280;1637;42.020;23.992;2023-10-13T09:58:11;93340.44;;;27.58;31.99
3250;BME280;1637;42.020;23.992;2023-10-13T10:00:44;93342.44;;;27.57;30.76
3250;BME280;1637;42.020;23.992;2023-10-13T10:03:15;93334.47;;;27.76;31.95
3250;BME280;1637;42.020;23.992;2023-10-13T10:05:58;93344.78;;;28.26;30.88
3250;BME280;1637;42.020;23.992;2023-10-13T10:08:33;93326.25;;;28.21;30.43
3250;BME280;1637;42.020;23.992;2023-10-13T10:11:21;93321.53;;;27.23;30.34
3250;BME280;1637;42.020;23.992;2023-10-13T10:13:53;93315.06;;;26.03;31.94
3250;BME280;1637;42.020;23.992;2023-10-13T10:16:34;93313.72;;;26.25;32.62
3250;BME280;1637;42.020;23.992;2023-10-13T10:19:03;93311.88;;;26.42;31.76
3250;BME280;1637;42.020;23.992;2023-10-13T10:21:34;93302.97;;;27.01;31.29
3250;BME280;1637;42.020;23.992;2023-10-13T10:24:01;93308.66;;;27.68;30.42
3250;BME280;1637;42.020;23.992;2023-10-13T10:26:30;93341.09;;;27.36;30.60
3250;BME280;1637;42.020;23.992;2023-10-13T10:28:57;93296.50;;;27.10;30.74
3250;BME280;1637;42.020;23.992;2023-10-13T10:31:31;93292.84;;;26.76;30.21
3250;BME280;1637;42.020;23.992;2023-10-13T10:34:13;93281.59;;;26.74;30.64
3250;BME280;1637;42.020;23.992;2023-10-13T10:36:40;93281.16;;;26.92;29.71
3250;BME280;1637;42.020;23.992;2023-10-13T10:39:11;93265.88;;;26.00;29.86
3250;BME280;1637;42.020;23.992;2023-10-13T10:41:38;93273.88;;;26.35;29.98
3250;BME280;1637;42.020;23.992;2023-10-13T10:44:11;93267.78;;;26.62;29.89
3250;BME280;1637;42.020;23.992;2023-10-13T10:46:42;93235.06;;;25.85;30.24
3250;BME280;1637;42.020;23.992;2023-10-13T10:49:19;93262.59;;;26.76;29.23
3250;BME280;1637;42.020;23.992;2023-10-13T10:51:57;93267.53;;;26.66;29.36
3250;BME280;1637;42.020;23.992;2023-10-13T10:54:27;93265.22;;;27.07;29.47
3250;BME280;1637;42.020;23.992;2023-10-13T10:56:57;93260.28;;;27.17;29.48
3250;BME280;1637;42.020;23.992;2023-10-13T10:59:36;93253.31;;;27.44;28.48
3250;BME280;1637;42.020;23.992;2023-10-13T11:02:04;93264.53;;;27.18;28.02
3250;BME280;1637;42.020;23.992;2023-10-13T11:04:33;93258.63;;;26.77;28.77
3250;BME280;1637;42.020;23.992;2023-10-13T11:07:00;93243.50;;;27.15;28.52
3250;BME280;1637;42.020;23.992;2023-10-13T11:09:30;93254.88;;;26.80;29.81
3250;BME280;1637;42.020;23.992;2023-10-13T11:12:10;93254.03;;;26.57;30.25
3250;BME280;1637;42.020;23.992;2023-10-13T11:14:41;93251.34;;;26.74;30.57
3250;BME280;1637;42.020;23.992;2023-10-13T11:17:08;93258.22;;;26.95;29.55
3250;BME280;1637;42.020;23.992;2023-10-13T11:19:45;93260.53;;;26.65;30.39
3250;BME280;1637;42.020;23.992;2023-10-13T11:22:13;93251.06;;;26.66;31.00
3250;BME280;1637;42.020;23.992;2023-10-13T11:24:54;93246.97;;;26.98;30.67
3250;BME280;1637;42.020;23.992;2023-10-13T11:27:20;93242.63;;;26.86;30.05
3250;BME280;1637;42.020;23.992;2023-10-13T11:30:08;93245.38;;;26.81;31.45
3250;BME280;1637;42.020;23.992;2023-10-13T11:32:38;93246.91;;;26.87;30.93
3250;BME280;1637;42.020;23.992;2023-10-13T11:35:09;93244.06;;;26.59;31.46
3250;BME280;1637;42.020;23.992;2023-10-13T11:37:46;93236.94;;;26.42;31.71
3250;BME280;1637;42.020;23.992;2023-10-13T11:40:22;93231.56;;;26.58;31.78
3250;BME280;1637;42.020;23.992;2023-10-13T11:43:09;93232.31;;;26.59;32.19
3250;BME280;1637;42.020;23.992;2023-10-13T11:45:40;93227.91;;;26.30;32.11
3250;BME280;1637;42.020;23.992;2023-10-13T11:48:20;93237.66;;;25.99;32.00
3250;BME280;1637;42.020;23.992;2023-10-13T11:51:01;93236.09;;;26.24;32.41
3250;BME280;1637;42.020;23.992;2023-10-13T11:53:32;93234.63;;;26.77;32.41
3250;BME280;1637;42.020;23.992;2023-10-13T11:55:59;93227.56;;;26.59;31.82
3250;BME280;1637;42.020;23.992;2023-10-13T11:58:26;93245.28;;;26.58;31.86
3250;BME280;1637;42.020;23.992;2023-10-13T12:00:54;93233.66;;;26.86;32.11
3250;BME280;1637;42.020;23.992;2023-10-13T12:03:34;93225.91;;;26.79;31.76
3250;BME280;1637;42.020;23.992;2023-10-13T12:06:18;93230.00;;;27.00;31.69
3250;BME280;1637;42.020;23.992;2023-10-13T12:08:58;93234.63;;;26.77;30.94
3250;BME280;1637;42.020;23.992;2023-10-13T12:11:37;93231.59;;;26.69;31.23
3250;BME280;1637;42.020;23.992;2023-10-13T12:14:07;93233.88;;;26.77;30.76
3250;BME280;1637;42.020;23.992;2023-10-13T12:16:47;93227.59;;;26.70;31.47
3250;BME280;1637;42.020;23.992;2023-10-13T12:19:17;93225.06;;;26.61;31.18
3250;BME280;1637;42.020;23.992;2023-10-13T12:21:45;93231.03;;;26.12;33.52
3250;BME280;1637;42.020;23.992;2023-10-13T12:24:13;93228.19;;;26.00;32.50
3250;BME280;1637;42.020;23.992;2023-10-13T12:26:48;93230.53;;;25.76;33.39
3250;BME280;1637;42.020;23.992;2023-10-13T12:29:23;93233.97;;;25.71;32.85
3250;BME280;1637;42.020;23.992;2023-10-13T12:31:53;93228.72;;;25.67;33.32
3250;BME280;1637;42.020;23.992;2023-10-13T12:34:34;93239.47;;;25.71;33.53
3250;BME280;1637;42.020;23.992;2023-10-13T12:37:24;93233.53;;;25.78;32.78
3250;BME280;1637;42.020;23.992;2023-10-13T12:40:06;93233.34;;;25.87;33.25
3250;BME280;1637;42.020;23.992;2023-10-13T12:42:51;93233.25;;;26.08;32.95
3250;BME280;1637;42.020;23.992;2023-10-13T12:45:38;93228.47;;;26.02;33.24
3250;BME280;1637;42.020;23.992;2023-10-13T12:48:22;93235.00;;;26.11;32.26
3250;BME280;1637;42.020;23.992;2023-10-13T12:51:07;93235.19;;;26.01;31.83
3250;BME280;1637;42.020;23.992;2023-10-13T12:53:47;93223.22;;;26.05;32.77
3250;BME280;1637;42.020;23.992;2023-10-13T12:56:14;93224.69;;;25.63;34.84
3250;BME280;1637;42.020;23.992;2023-10-13T12:58:42;93213.72;;;25.63;33.36
3250;BME280;1637;42.020;23.992;2023-10-13T13:01:17;93231.09;;;25.60;33.47
3250;BME280;1637;42.020;23.992;2023-10-13T13:03:45;93231.09;;;25.86;33.48
3250;BME280;1637;42.020;23.992;2023-10-13T13:06:16;93229.25;;;26.09;33.07
3250;BME280;1637;42.020;23.992;2023-10-13T13:08:43;93239.16;;;25.95;33.48
3250;BME280;1637;42.020;23.992;2023-10-13T13:11:13;93239.28;;;25.80;32.48
3250;BME280;1637;42.020;23.992;2023-10-13T13:13:40;93232.16;;;25.94;33.16
3250;BME280;1637;42.020;23.992;2023-10-13T13:16:06;93267.00;;;26.19;32.81
3250;BME280;1637;42.020;23.992;2023-10-13T13:18:35;93239.81;;;25.84;33.43
3250;BME280;1637;42.020;23.992;2023-10-13T13:21:01;93211.28;;;25.45;33.89
3250;BME280;1637;42.020;23.992;2023-10-13T13:23:31;93225.59;;;25.54;33.23
3250;BME280;1637;42.020;23.992;2023-10-13T13:26:00;93235.06;;;25.53;34.41
3250;BME280;1637;42.020;23.992;2023-10-13T13:28:28;93231.34;;;25.56;34.19
3250;BME280;1637;42.020;23.992;2023-10-13T13:30:55;93232.69;;;25.66;33.82
3250;BME280;1637;42.020;23.992;2023-10-13T13:33:22;93235.34;;;25.61;34.05
3250;BME280;1637;42.020;23.992;2023-10-13T13:35:53;93243.72;;;25.72;34.08
3250;BME280;1637;42.020;23.992;2023-10-13T13:38:20;93233.78;;;25.80;33.45
3250;BME280;1637;42.020;23.992;2023-10-13T13:40:53;93247.81;;;25.88;34.51
3250;BME280;1637;42.020;23.992;2023-10-13T13:43:20;93238.94;;;25.67;34.47
3250;BME280;1637;42.020;23.992;2023-10-13T13:46:04;93247.47;;;25.49;34.41
3250;BME280;1637;42.020;23.992;2023-10-13T13:48:35;93244.97;;;25.45;33.55
3250;BME280;1637;42.020;23.992;2023-10-13T13:53:31;93179.38;;;25.16;33.63